KTYS

Mc Ghee Tyson Airport

Knoxville, Tennessee, USA
KTYS 221120Z 2212/2312 VRB03KT P6SM SCT070 BKN110 FM221500 23004KT P6SM SCT060 BKN110 FM222100 31006KT P6SM VCSH BKN060 OVC100 TEMPO 2222/2302 5SM -TSRA OVC035CB FM230200 VRB03KT P6SM BKN060 FM231000 00000KT 4SM BR BKN090
Issued Valid From Valid To
Sep-22 @ 11:20 UTC
(4 hours ago)
Sep-22 @ 12:00 UTC
(3 hours ago)
Sep-23 @ 12:00 UTC
(in 21 hours)
to
to
to
to
to
to
KTYS 221120Z 2212/2312 VRB03KT P6SM SCT070 BKN110 FM221500 23004KT P6SM SCT060 BKN110 FM222100 31006KT P6SM VCSH BKN060 OVC100 TEMPO 2222/2302 5SM -TSRA OVC035CB FM230200 VRB03KT P6SM BKN060 FM231000 00000KT 4SM BR BKN090
Issued Sep-22 @ 11:20 UTC
(4 hours ago)
Valid From Sep-22 @ 12:00 UTC
(3 hours ago)
Valid To Sep-23 @ 12:00 UTC
(in 21 hours)
-
-
-
-
-
-